Portada
METAR-TAF:

METAR-TAF

Aeropuertos :

Tenerife, España

Aeropuerto de Tenerife Norte

latitud: 28-28N, longitud: 016-19W, altitud: 632 m

Observación

El informe se hizo hace 18 minutos, a las 09:30 UTC
Viento 2 kt con dirección variable
Temperatura 11°C
Humedad 87%
Presión 1020 hPa
Visibilidad 10 km o más
Nubes dispersas a una altura de 1000 ft
Cielo nuboso a una altura de 2800 ft

METAR: GCXO 250930Z VRB02KT 9999 SCT010 BKN028 11/09 Q1020 NOSIG

Hora: 09:48 (09:48 UTC)

Pronóstico

El informe se hizo hace 1 hora y 48 minutos, a las 08:00 UTC
Pronóstico válido del 25 a las 09 UTC al 26 a las 09 UTC
Viento 5 kt del oeste-noroeste
Visibilidad 10 km o más
Cielo nuboso a una altura de 2000 ft
Probabilidad 30% :
Temporalmente
del 25 a las 09 UTC al 25 a las 16 UTC
Visibilidad: 3000 m
Cielo nuboso a una altura de 1000 ft
llovizna, niebla en bancos

TAF: GCXO 250800Z 2509/2609 30005KT 9999 BKN020 TX15/2514Z TN08/2606Z PROB30 TEMPO 2509/2516 3000 DZ BCFG BKN010

Observaciones y pronósticos meteorológicos de más de 4000 aeropuertos (mensajes METAR y TAF).

Los puntos amarillos y rojos representan las estaciones disponibles.

Ponga el ratón en el punto deseado para ver el nombre de la estación.

Haga clic para ver las observaciones y los pronósticos meteorológicos.

Para cambiar el mapa : haga clic en los botones verdes con una cruz de color negro para hacer un zoom, en el botón verde con un guión para alejar o en las flechas verdes para mapas adyacentes.


METAR-TAF: